createdAt,value
2022-12-19T00:00:24.386Z,10.80
2022-12-19T00:01:29.702Z,11.50
2022-12-19T00:02:33.434Z,7.30
2022-12-19T00:03:36.148Z,8.80
2022-12-19T00:04:38.184Z,7.30
2022-12-19T00:05:40.980Z,11.60
2022-12-19T00:06:44.025Z,11.40
2022-12-19T00:07:48.784Z,12.20
2022-12-19T00:08:52.219Z,9.20
2022-12-19T00:09:54.055Z,5.60
2022-12-19T00:11:00.290Z,9.60
2022-12-19T00:12:02.138Z,6.30
2022-12-19T00:13:03.810Z,8.00
2022-12-19T00:14:06.583Z,17.67
2022-12-19T00:15:09.336Z,9.70
2022-12-19T00:16:14.419Z,7.55
2022-12-19T00:17:18.215Z,10.10
2022-12-19T00:18:20.338Z,6.78
2022-12-19T00:19:22.137Z,4.30
2022-12-19T00:20:23.865Z,6.33
2022-12-19T00:21:30.837Z,6.44
2022-12-19T00:22:34.430Z,2.20
2022-12-19T00:23:36.199Z,9.33
2022-12-19T00:24:37.945Z,11.56
2022-12-19T00:25:40.166Z,9.78
2022-12-19T00:26:43.357Z,9.60
2022-12-19T00:27:45.461Z,10.89
2022-12-19T00:28:50.955Z,10.67
2022-12-19T00:29:52.790Z,12.20
2022-12-19T00:30:55.181Z,4.56
2022-12-19T00:31:58.576Z,8.60
2022-12-19T00:33:00.430Z,9.22
2022-12-19T00:34:02.835Z,4.89
2022-12-19T00:35:05.220Z,9.10
2022-12-19T00:36:16.483Z,9.80
2022-12-19T00:37:19.978Z,6.00
2022-12-19T00:38:22.099Z,5.33
2022-12-19T00:39:24.233Z,7.50
2022-12-19T00:40:26.118Z,6.90
2022-12-19T00:41:33.279Z,7.00
2022-12-19T00:42:35.208Z,5.20
2022-12-19T00:43:38.240Z,0.78
2022-12-19T00:44:40.192Z,3.80
2022-12-19T00:45:41.979Z,7.00
2022-12-19T00:46:45.151Z,8.11
2022-12-19T00:47:49.149Z,7.20
2022-12-19T00:48:50.975Z,11.44
2022-12-19T00:49:54.737Z,8.89
2022-12-19T00:51:15.026Z,6.00
2022-12-19T00:52:17.766Z,9.40
2022-12-19T00:53:19.577Z,9.40
2022-12-19T00:54:21.495Z,10.22
2022-12-19T00:55:23.472Z,6.44
2022-12-19T00:56:31.192Z,7.00
2022-12-19T00:57:34.924Z,7.40
2022-12-19T00:58:36.791Z,8.22
2022-12-19T00:59:38.416Z,6.89
2022-12-19T01:00:40.700Z,10.00
2022-12-19T01:01:44.364Z,6.30
2022-12-19T01:02:48.710Z,8.70
2022-12-19T01:04:26.158Z,7.90
2022-12-19T01:04:54.795Z,10.60
2022-12-19T01:05:56.516Z,11.78
2022-12-19T01:07:03.108Z,11.70
2022-12-19T01:08:10.086Z,9.10
2022-12-19T01:09:13.277Z,2.89
2022-12-19T01:10:17.777Z,12.40
2022-12-19T01:11:20.394Z,9.80
2022-12-19T01:12:24.670Z,11.80
2022-12-19T01:13:29.396Z,10.50
2022-12-19T01:14:31.446Z,9.10
2022-12-19T01:15:33.081Z,7.78
2022-12-19T01:16:34.985Z,7.00
2022-12-19T01:17:43.728Z,8.11
2022-12-19T01:18:40.687Z,7.40
2022-12-19T01:19:44.629Z,6.33
2022-12-19T01:20:46.143Z,6.80
2022-12-19T01:21:48.062Z,14.11
2022-12-19T01:22:50.242Z,6.00
2022-12-19T01:23:52.610Z,9.00
2022-12-19T01:24:54.573Z,6.90
2022-12-19T01:25:58.955Z,5.78
2022-12-19T01:27:05.043Z,5.20
2022-12-19T01:29:51.827Z,2.90
2022-12-19T01:30:46.072Z,8.50
2022-12-19T01:31:50.555Z,2.90
2022-12-19T01:32:52.373Z,6.33
2022-12-19T01:33:54.872Z,5.70
2022-12-19T01:34:56.836Z,4.70
2022-12-19T01:35:58.580Z,2.33
2022-12-19T01:37:00.611Z,6.78
2022-12-19T01:38:08.523Z,3.27
2022-12-19T01:39:08.318Z,7.00
2022-12-19T01:40:12.102Z,3.33
2022-12-19T01:41:14.535Z,5.90
2022-12-19T01:42:23.096Z,7.90
2022-12-19T01:43:28.099Z,3.20
2022-12-19T01:44:31.350Z,4.90
2022-12-19T01:45:36.685Z,5.30
2022-12-19T01:46:45.222Z,8.40
2022-12-19T01:48:05.912Z,6.00
2022-12-19T01:49:17.915Z,7.40
2022-12-19T01:50:28.370Z,4.50
2022-12-19T01:51:42.773Z,9.50
2022-12-19T01:52:45.813Z,6.70
2022-12-19T01:53:51.509Z,9.10
2022-12-19T01:54:53.439Z,11.40
2022-12-19T01:55:55.784Z,6.44
2022-12-19T01:56:59.239Z,4.00
2022-12-19T01:58:03.025Z,2.20
2022-12-19T02:00:23.252Z,8.70
2022-12-19T02:01:26.521Z,7.82
2022-12-19T02:02:34.903Z,1.27
2022-12-19T02:03:37.867Z,7.60
2022-12-19T02:04:44.121Z,4.80
2022-12-19T02:05:46.063Z,4.30
2022-12-19T02:06:49.944Z,5.70
2022-12-19T02:07:52.453Z,3.80
2022-12-19T02:08:55.254Z,6.70
2022-12-19T02:09:58.089Z,8.70
2022-12-19T02:11:01.834Z,5.50
2022-12-19T02:12:05.470Z,6.10
2022-12-19T02:13:09.793Z,3.40
2022-12-19T03:52:28.607Z,11.00
2022-12-19T03:53:50.549Z,6.50
2022-12-19T06:08:25.809Z,6.64
2022-12-19T06:09:28.074Z,10.10
2022-12-19T06:10:30.011Z,10.11
2022-12-19T06:11:32.116Z,17.22
2022-12-19T06:12:34.065Z,6.89
2022-12-19T06:13:37.163Z,6.22
2022-12-19T06:14:39.425Z,16.73
2022-12-19T06:15:41.298Z,17.40
2022-12-19T06:16:43.173Z,19.33
2022-12-19T06:17:44.981Z,23.33
2022-12-19T06:18:47.209Z,26.78
2022-12-19T06:19:49.198Z,21.50
2022-12-19T06:21:04.131Z,25.67
2022-12-19T06:22:05.999Z,22.50
2022-12-19T06:23:08.048Z,22.00
2022-12-19T06:24:10.951Z,26.09
2022-12-19T06:25:12.933Z,19.11
2022-12-19T06:26:20.000Z,22.44
2022-12-19T06:27:21.812Z,22.00
2022-12-19T06:28:25.486Z,24.00
2022-12-19T06:29:27.443Z,23.60
2022-12-19T06:30:29.452Z,24.90
2022-12-19T06:31:31.449Z,27.78
2022-12-19T06:32:37.714Z,29.00
2022-12-19T06:33:37.173Z,37.20
2022-12-19T06:35:03.240Z,33.22
2022-12-19T06:35:43.059Z,35.30
2022-12-19T06:36:44.947Z,36.60
2022-12-19T06:37:48.083Z,36.67
2022-12-19T06:38:50.907Z,28.36
2022-12-19T06:39:52.851Z,30.91
2022-12-19T06:40:55.171Z,28.89
2022-12-19T06:41:57.202Z,4.33
2022-12-19T06:42:59.169Z,24.00
2022-12-19T06:44:03.411Z,24.67
2022-12-19T06:45:07.191Z,28.80
2022-12-19T06:46:09.629Z,29.60
2022-12-19T06:47:11.611Z,27.40
2022-12-19T06:48:13.581Z,32.22
2022-12-19T06:49:15.337Z,28.56
2022-12-19T06:50:17.550Z,30.44
2022-12-19T06:51:20.029Z,39.22
2022-12-19T06:52:22.123Z,37.60
2022-12-19T06:53:24.186Z,36.80
2022-12-19T06:54:26.583Z,34.90
2022-12-19T06:55:28.453Z,38.30
2022-12-19T06:56:36.144Z,35.33
2022-12-19T06:57:38.327Z,28.10
2022-12-19T06:58:40.481Z,40.11
2022-12-19T06:59:42.221Z,31.56
2022-12-19T07:00:44.457Z,36.89
2022-12-19T07:02:02.229Z,23.50
2022-12-19T07:03:07.691Z,33.30
2022-12-19T07:04:12.728Z,34.60
2022-12-19T07:05:14.834Z,38.10
2022-12-19T07:06:17.377Z,36.89
2022-12-19T07:07:19.854Z,35.60
2022-12-19T07:08:21.957Z,36.30
2022-12-19T07:09:25.140Z,33.00
2022-12-19T07:10:27.533Z,31.00
2022-12-19T08:26:24.159Z,17.00
2022-12-19T08:27:27.370Z,15.20
2022-12-19T08:28:31.459Z,5.33
2022-12-19T08:29:33.562Z,11.40
2022-12-19T08:30:40.558Z,14.22
2022-12-19T08:31:42.487Z,11.50
2022-12-19T08:32:45.054Z,11.56
2022-12-19T08:33:47.033Z,12.50
2022-12-19T08:34:49.995Z,12.00
2022-12-19T08:35:52.030Z,17.82
2022-12-19T08:36:53.881Z,13.67
2022-12-19T08:37:55.582Z,12.44
2022-12-19T08:38:57.425Z,10.56
2022-12-19T08:40:00.533Z,18.50
2022-12-19T08:41:03.145Z,16.90
2022-12-19T08:42:05.168Z,12.80
2022-12-19T08:43:06.912Z,15.00
2022-12-19T08:44:11.003Z,9.67
2022-12-19T08:45:13.064Z,12.90
2022-12-19T08:46:15.813Z,17.10
2022-12-19T08:47:17.910Z,18.20
2022-12-19T08:48:20.178Z,13.10
2022-12-19T08:49:22.062Z,17.11
2022-12-19T08:50:24.145Z,14.00
2022-12-19T08:51:26.021Z,11.89
2022-12-19T08:52:28.027Z,17.11
2022-12-19T08:53:32.478Z,19.33
2022-12-19T08:54:34.558Z,16.90
2022-12-19T08:55:36.303Z,18.78
2022-12-19T08:56:43.588Z,19.11
2022-12-19T08:57:42.902Z,16.90
2022-12-19T08:58:45.670Z,20.11
2022-12-19T08:59:47.953Z,19.20
2022-12-19T09:00:56.523Z,21.30
2022-12-19T09:01:57.377Z,18.00
2022-12-19T09:03:00.017Z,13.00
2022-12-19T09:05:50.889Z,17.10
2022-12-19T09:05:58.411Z,16.90
2022-12-19T09:06:19.084Z,17.70
2022-12-19T09:07:16.883Z,12.60
2022-12-19T09:08:18.635Z,17.70
2022-12-19T09:09:20.360Z,16.89
2022-12-19T09:10:22.199Z,20.33
2022-12-19T09:11:24.475Z,15.00
2022-12-19T09:12:26.619Z,16.10
2022-12-19T09:13:29.925Z,16.60
2022-12-19T09:14:34.086Z,19.80
2022-12-19T09:15:35.889Z,16.00
2022-12-19T09:16:39.322Z,19.80
2022-12-19T09:17:41.450Z,14.10
2022-12-19T09:18:48.792Z,18.80
2022-12-19T09:19:50.132Z,18.20
2022-12-19T09:20:55.581Z,15.56
2022-12-19T09:21:57.420Z,16.70
2022-12-19T09:22:59.037Z,14.44
2022-12-19T09:24:07.483Z,17.78
2022-12-19T09:25:05.557Z,14.30
2022-12-19T09:26:12.402Z,14.30
2022-12-19T09:27:14.957Z,14.40
2022-12-19T09:28:27.393Z,11.80
2022-12-19T09:29:22.296Z,16.10
2022-12-19T09:30:24.529Z,14.55
2022-12-19T09:31:28.009Z,14.55
2022-12-19T09:32:30.054Z,11.90
2022-12-19T09:33:41.206Z,15.20
2022-12-19T09:34:39.110Z,17.00
2022-12-19T09:35:45.015Z,17.55
2022-12-19T09:36:47.105Z,14.10
2022-12-19T09:37:49.384Z,15.50
2022-12-19T09:38:55.778Z,12.90
2022-12-19T09:39:58.910Z,14.20
2022-12-19T09:41:05.043Z,16.90
2022-12-19T09:42:23.311Z,15.70
2022-12-19T09:43:28.811Z,16.70
2022-12-19T09:44:40.320Z,12.80
2022-12-19T09:46:04.351Z,12.40
2022-12-19T09:47:19.164Z,15.10
2022-12-19T09:48:24.439Z,15.20
2022-12-19T09:49:41.667Z,16.40
2022-12-19T09:51:10.070Z,14.90
2022-12-19T09:52:13.715Z,15.90
2022-12-19T09:53:24.972Z,13.80
2022-12-19T09:54:36.717Z,17.50
2022-12-19T09:55:41.009Z,14.80
2022-12-19T09:56:45.660Z,14.30
2022-12-19T09:58:00.548Z,14.00
2022-12-19T09:59:13.931Z,14.90
2022-12-19T10:00:19.412Z,16.10
2022-12-19T10:01:25.183Z,17.40
2022-12-19T10:02:34.150Z,16.10
2022-12-19T14:22:52.531Z,51.00
2022-12-19T14:24:19.350Z,52.60
2022-12-19T14:28:14.850Z,58.80
2022-12-19T14:28:17.937Z,66.80
2022-12-19T14:28:20.125Z,64.30
2022-12-19T14:28:54.391Z,67.00
2022-12-19T14:30:30.881Z,67.20
2022-12-19T14:31:01.401Z,62.70
2022-12-19T14:33:21.991Z,64.00
2022-12-19T14:33:45.854Z,63.70
2022-12-19T14:34:47.120Z,54.70
2022-12-19T14:36:07.878Z,58.80
2022-12-19T14:36:50.747Z,54.10
2022-12-19T14:39:20.361Z,53.50
2022-12-19T14:39:25.134Z,58.80
2022-12-19T14:40:25.708Z,59.20
2022-12-19T14:41:31.397Z,58.00
2022-12-19T14:43:57.345Z,55.00
2022-12-19T14:44:00.527Z,52.40
2022-12-19T14:52:08.736Z,53.50
2022-12-19T14:54:00.205Z,60.10
2022-12-19T14:54:03.814Z,54.60
2022-12-19T14:54:40.197Z,56.50
2022-12-19T14:57:06.245Z,46.70
2022-12-19T14:58:53.099Z,52.80
2022-12-19T14:59:32.855Z,45.20
2022-12-19T15:01:08.375Z,41.50
2022-12-19T15:02:07.520Z,41.90
2022-12-19T15:03:16.114Z,41.60
2022-12-19T15:04:53.257Z,41.60
2022-12-19T15:05:24.797Z,42.20
2022-12-19T15:07:07.430Z,40.00
2022-12-19T15:07:34.633Z,30.30
2022-12-19T15:09:02.592Z,27.40
2022-12-19T15:11:00.906Z,38.40
2022-12-19T15:11:16.163Z,42.20
2022-12-19T15:14:46.608Z,42.60
2022-12-19T15:14:46.785Z,43.90
2022-12-19T15:14:56.173Z,43.10
2022-12-19T15:15:47.913Z,43.00
2022-12-19T15:17:10.211Z,47.90
2022-12-19T15:18:19.274Z,49.10
2022-12-19T15:19:21.324Z,45.90
2022-12-19T15:20:23.922Z,48.30
2022-12-19T15:21:27.214Z,48.20
2022-12-19T15:22:29.199Z,44.80
2022-12-19T15:23:32.094Z,43.50
2022-12-19T15:24:34.133Z,43.55
2022-12-19T15:26:02.829Z,49.00
2022-12-19T15:26:52.008Z,46.90
2022-12-19T15:27:54.555Z,46.30
2022-12-19T15:28:57.159Z,42.50
2022-12-19T15:29:59.585Z,46.50
2022-12-19T15:31:23.655Z,48.00
2022-12-19T15:32:27.003Z,44.00
2022-12-19T15:33:29.167Z,47.10
2022-12-19T15:34:35.848Z,50.11
2022-12-19T15:35:36.570Z,49.60
2022-12-19T15:36:38.676Z,51.60
2022-12-19T15:37:40.906Z,50.22
2022-12-19T15:38:42.889Z,52.10
2022-12-19T15:39:45.023Z,50.56
2022-12-19T15:40:47.791Z,52.40
2022-12-19T15:41:53.943Z,53.20
2022-12-19T15:42:58.238Z,54.50
2022-12-19T15:44:09.843Z,52.90
2022-12-19T15:45:15.681Z,51.20
2022-12-19T15:46:17.901Z,50.80
2022-12-19T15:47:36.788Z,55.56
2022-12-19T15:48:41.847Z,58.10
2022-12-19T15:49:43.905Z,63.90
2022-12-19T15:50:46.563Z,61.67
2022-12-19T15:51:50.472Z,66.40
2022-12-19T15:52:55.724Z,65.80
2022-12-19T15:54:15.523Z,65.00
2022-12-19T15:55:02.388Z,65.90
2022-12-19T15:56:07.135Z,60.80
2022-12-19T15:57:16.245Z,69.50
2022-12-19T15:58:19.794Z,64.80
2022-12-19T15:59:23.732Z,53.30
2022-12-19T16:00:32.848Z,62.10
2022-12-19T16:01:36.296Z,71.20
2022-12-19T16:03:21.066Z,67.50
2022-12-19T16:03:50.906Z,66.10
2022-12-19T16:04:54.490Z,62.30
2022-12-19T16:05:57.810Z,64.70
2022-12-19T16:07:14.129Z,62.10
2022-12-19T16:08:19.577Z,55.30
2022-12-19T16:09:38.849Z,55.70
2022-12-19T16:10:55.898Z,51.50
2022-12-19T16:12:22.236Z,60.40
2022-12-19T16:13:31.481Z,60.20
2022-12-19T16:14:33.749Z,57.80
2022-12-19T16:15:37.134Z,58.00
2022-12-19T16:16:40.733Z,57.91
2022-12-19T16:17:43.846Z,58.40
2022-12-19T16:18:46.769Z,50.45
2022-12-19T16:19:50.937Z,59.82
2022-12-19T16:20:53.399Z,57.60
2022-12-19T16:21:57.084Z,59.70
2022-12-19T16:22:59.507Z,59.10
2022-12-19T16:24:01.812Z,57.40
2022-12-19T16:25:07.668Z,57.30
2022-12-19T16:26:15.776Z,56.80
2022-12-19T16:27:24.541Z,57.40
2022-12-19T16:28:31.425Z,63.40
2022-12-19T16:29:42.101Z,64.20
2022-12-19T16:31:59.533Z,63.10
2022-12-19T16:45:23.047Z,67.60
2022-12-19T16:46:25.263Z,57.10
2022-12-19T16:47:27.832Z,59.60
2022-12-19T16:48:30.973Z,54.80
2022-12-19T16:49:33.517Z,55.70
2022-12-19T16:50:35.586Z,53.50
2022-12-19T16:51:37.819Z,49.44
2022-12-19T16:52:42.722Z,51.30
2022-12-19T16:53:43.842Z,47.90
2022-12-19T16:54:46.657Z,47.40
2022-12-19T16:55:49.788Z,50.00
2022-12-19T16:56:53.317Z,50.70
2022-12-19T16:57:56.289Z,52.60
2022-12-19T16:59:02.155Z,51.09
2022-12-19T17:00:06.233Z,51.70
2022-12-19T17:01:09.680Z,52.20
2022-12-19T17:02:19.233Z,49.00
2022-12-19T17:03:34.472Z,51.80
2022-12-19T17:04:41.833Z,53.80
2022-12-19T17:05:41.264Z,53.10
2022-12-19T17:06:44.212Z,30.00
2022-12-19T17:07:47.368Z,50.45
2022-12-19T17:08:49.725Z,57.40
2022-12-19T17:09:51.871Z,55.00
2022-12-19T17:10:54.844Z,52.20
2022-12-19T17:12:01.040Z,63.50
2022-12-19T17:13:03.690Z,59.30
2022-12-19T17:15:23.389Z,60.50
2022-12-19T17:16:25.890Z,61.50
2022-12-19T17:17:28.586Z,59.60
2022-12-19T17:18:36.220Z,61.40
2022-12-19T17:19:39.308Z,58.40
2022-12-19T17:20:43.458Z,53.60
2022-12-19T17:21:45.553Z,54.70
2022-12-19T17:22:48.172Z,51.78
2022-12-19T17:23:51.311Z,59.80
2022-12-19T17:24:53.446Z,51.73
2022-12-19T17:25:56.256Z,53.90
2022-12-19T17:26:58.410Z,50.70
2022-12-19T17:28:00.794Z,37.56
2022-12-19T17:29:02.797Z,54.10
2022-12-19T17:30:06.646Z,51.11
2022-12-19T17:32:33.498Z,49.90
2022-12-19T17:33:38.521Z,49.30
2022-12-19T17:34:40.629Z,48.70
2022-12-19T17:35:44.411Z,49.33
2022-12-19T17:36:47.225Z,48.50
2022-12-19T17:37:52.816Z,55.80
2022-12-19T17:39:00.229Z,53.60
2022-12-19T17:40:03.937Z,49.70
2022-12-19T17:41:08.351Z,55.00
2022-12-19T17:43:26.234Z,48.60
2022-12-19T17:44:29.190Z,45.20
2022-12-19T17:45:33.252Z,42.00
2022-12-19T17:46:36.255Z,43.90
2022-12-19T17:47:38.731Z,47.90
2022-12-19T17:48:40.611Z,45.30
2022-12-19T17:49:43.855Z,49.56
2022-12-19T17:50:47.044Z,52.40
2022-12-19T17:51:51.293Z,56.40
2022-12-19T17:52:54.563Z,51.30
2022-12-19T17:53:57.100Z,53.73
2022-12-19T17:54:58.935Z,51.00
2022-12-19T17:56:00.671Z,52.33
2022-12-19T17:57:02.637Z,52.11
2022-12-19T17:58:04.610Z,48.00
2022-12-19T17:59:06.535Z,50.89
2022-12-19T18:00:09.923Z,45.90
2022-12-19T18:01:22.846Z,50.00
2022-12-19T18:02:27.810Z,53.40
2022-12-19T18:03:30.628Z,43.64
2022-12-19T18:04:32.468Z,55.90
2022-12-19T18:05:36.249Z,47.00
2022-12-19T18:06:38.917Z,52.30
2022-12-19T18:07:40.699Z,45.20
2022-12-19T18:08:43.408Z,52.11
2022-12-19T18:09:45.501Z,51.20
2022-12-19T18:10:47.517Z,53.10
2022-12-19T18:11:51.795Z,35.33
2022-12-19T18:12:54.814Z,52.80
2022-12-19T18:13:57.845Z,54.00
2022-12-19T18:15:00.699Z,46.50
2022-12-19T18:16:04.283Z,44.60
2022-12-19T18:17:06.178Z,46.40
2022-12-19T18:18:14.155Z,49.50
2022-12-19T18:19:21.935Z,50.00
2022-12-19T18:20:31.924Z,41.90
2022-12-19T18:21:33.422Z,48.50
2022-12-19T18:22:35.780Z,51.36
2022-12-19T18:23:38.739Z,45.40
2022-12-19T18:24:41.650Z,53.70
2022-12-19T18:25:44.674Z,50.90
2022-12-19T18:26:46.667Z,56.50
2022-12-19T18:27:48.520Z,48.33
2022-12-19T18:28:50.350Z,45.44
2022-12-19T18:29:52.198Z,49.11
2022-12-19T18:30:58.140Z,42.89
2022-12-19T18:32:00.293Z,44.80
2022-12-19T18:33:04.008Z,47.80
2022-12-19T18:34:08.400Z,50.90
2022-12-19T18:35:20.154Z,51.10
2022-12-19T18:36:25.509Z,48.50
2022-12-19T18:37:27.570Z,49.10
2022-12-19T18:38:30.103Z,54.50
2022-12-19T18:39:31.891Z,49.00
2022-12-19T18:40:34.558Z,52.22
2022-12-19T18:41:36.670Z,48.60
2022-12-19T18:42:39.273Z,45.33
2022-12-19T18:43:41.054Z,54.60
2022-12-19T18:44:43.183Z,57.44
2022-12-19T18:45:47.855Z,48.33
2022-12-19T18:46:51.111Z,54.60
2022-12-19T18:47:57.456Z,56.30
2022-12-19T18:48:59.572Z,58.90
2022-12-19T18:50:02.520Z,50.40
2022-12-19T18:51:05.757Z,61.60
2022-12-19T18:52:10.427Z,52.90
2022-12-19T18:53:16.058Z,51.30
2022-12-19T18:54:20.996Z,44.30
2022-12-19T18:55:28.888Z,51.40
2022-12-19T18:56:31.516Z,53.80
2022-12-19T18:57:33.309Z,48.89
2022-12-19T18:58:36.388Z,53.89
2022-12-19T18:59:38.942Z,51.90
2022-12-19T19:00:41.091Z,57.11
2022-12-19T19:01:45.978Z,51.67
2022-12-19T19:03:03.445Z,51.40
2022-12-19T19:04:05.534Z,54.80
2022-12-19T20:12:44.934Z,50.30
2022-12-19T20:13:47.161Z,51.20
2022-12-19T20:14:49.269Z,49.50
2022-12-19T20:15:52.140Z,44.00
2022-12-19T20:16:55.445Z,46.45
2022-12-19T20:18:04.107Z,52.09
2022-12-19T20:19:08.323Z,46.50
2022-12-19T20:20:11.399Z,47.40
2022-12-19T20:21:14.105Z,53.73
2022-12-19T20:22:17.334Z,52.50
2022-12-19T20:23:19.640Z,50.40
2022-12-19T20:24:21.868Z,45.50
2022-12-19T20:25:24.184Z,54.40
2022-12-19T20:26:26.165Z,43.80
2022-12-19T20:27:33.536Z,54.33
2022-12-19T20:28:38.744Z,50.90
2022-12-19T20:29:41.228Z,48.90
2022-12-19T20:30:44.273Z,48.00
2022-12-19T20:31:46.877Z,33.90
2022-12-19T20:32:49.148Z,30.20
2022-12-19T20:33:53.490Z,51.44
2022-12-19T20:34:55.412Z,38.90
2022-12-19T20:36:03.811Z,52.00
2022-12-19T20:37:06.409Z,52.80
2022-12-19T20:38:08.406Z,54.60
2022-12-19T20:39:10.225Z,55.00
2022-12-19T20:40:12.230Z,54.67
2022-12-19T20:41:15.359Z,50.89
2022-12-19T20:42:17.901Z,58.64
2022-12-19T20:43:19.866Z,46.80
2022-12-19T20:44:24.420Z,58.11
2022-12-19T20:45:25.948Z,62.90
2022-12-19T20:46:29.193Z,55.30
2022-12-19T20:47:31.065Z,43.91
2022-12-19T20:48:33.255Z,53.00
2022-12-19T20:49:36.253Z,57.70
2022-12-19T20:50:42.885Z,50.80
2022-12-19T20:51:43.574Z,54.30
2022-12-19T20:52:45.483Z,51.60
2022-12-19T20:53:48.818Z,51.00
2022-12-19T20:54:50.748Z,52.80
2022-12-19T20:55:58.493Z,52.33
2022-12-19T20:57:09.779Z,46.50
2022-12-19T20:58:13.692Z,46.00
2022-12-19T20:59:16.347Z,53.90
2022-12-19T21:00:19.680Z,44.20
2022-12-19T21:01:28.541Z,47.90
2022-12-19T21:02:53.068Z,50.10
2022-12-19T21:03:39.543Z,49.70
2022-12-19T21:04:41.707Z,51.20
2022-12-19T21:05:47.469Z,55.44
2022-12-19T21:06:49.644Z,50.00
2022-12-19T21:07:51.409Z,44.60
2022-12-19T21:08:56.963Z,41.11
2022-12-19T21:09:59.470Z,43.60
2022-12-19T21:11:04.159Z,42.56
2022-12-19T21:12:06.870Z,51.00
2022-12-19T21:13:09.096Z,40.90
2022-12-19T21:14:11.089Z,38.00
2022-12-19T21:15:13.559Z,46.44
2022-12-19T21:16:18.524Z,50.40
2022-12-19T21:17:20.549Z,45.50
2022-12-19T21:18:24.193Z,43.00
2022-12-19T21:19:29.362Z,37.40
2022-12-19T21:20:36.133Z,34.89
2022-12-19T21:21:38.305Z,41.30
2022-12-19T21:22:40.633Z,44.67
